Aérodrome :
LOGIN :

S'inscrire | Disclaimer

   EN    FR    IT 

 










Légende :    VFR   VFR Marginal   IFR   IFR Intensif   IFR Très Intensif
Visi : 
Plafond : 
>= 8 km
>= 3000ft
5 à 8 km
1000 à 3000 ft
1500m à 5 km
500 à 1000 ft
800 à 1500m
200 à 500 ft
< 800m
< 200 ft
Symboles :   Orages  Brouillard  Fortes neiges  Fortes précipitations  Vent > 20 kt
SIGMETs :   Divers  Orages  Givrage  Turbulence  Onde Orograph.  Cendres Volcan.







- Altitude de l'aérodrome : 512 ft
- Code IATA : URO
- Voir les cartes d'approche


LFOP - Rouen Vallée de Seine

DERNIER METAR :
  • 251000Z AUTO 22005KT 170V290 CAVOK 25/19 Q1017 NOSIG

METARs EXPIRÉS :
  • 250930Z AUTO 23007KT 190V260 CAVOK 24/18 Q1016 NOSIG
  • 250900Z AUTO 18003KT 130V220 CAVOK 24/18 Q1016 TEMPO BKN008
  • 250830Z AUTO VRB03KT CAVOK 23/18 Q1016 TEMPO BKN008
  • 250800Z AUTO VRB02KT CAVOK 23/17 Q1016 TEMPO BKN008
  • 250730Z AUTO VRB01KT CAVOK 21/16 Q1016 TEMPO BKN008

TAF TAF LFOP
Valide du 25 à 06h jusqu'au 26 à 06h UTC


250500Z 2506/2606 VRB03KT CAVOK
BECMG 2506/2510 27008KT
PROB30
TEMPO 2507/2510 BKN008
BECMG 2513/2516 33010KT
BECMG 2602/2606 03010KT
PROB30
TEMPO 2602/2606 BKN003
ATIS : +33 2 35 80 80 34
Météo : +33 2 32 86 52 80
Pas de NOTAMs connus pour ce terrain.



MET'MAP, la Météo Aéronautique d'un coup d'oeil ! - Copyright ORBIFLY Décembre 2007 - Disclaimer

ORBIFLY MET'MAP TEAM :

Programmation & Développement : Alexandra Zaïnal
Conception & Développement : Baudouin d'Aumeries
Co-Programmation & Développement : Marc-Olivier Méhu
Soutien technique & logistique : Manuel Goepfert

Contact : metmap@orbifly.com




SOURCES & CREDITS :

   NOAA